createdAt,value
2018-11-02T00:00:34.331Z,7.75
2018-11-02T00:01:34.306Z,7.75
2018-11-02T00:02:34.284Z,7.71
2018-11-02T00:03:34.275Z,7.75
2018-11-02T00:04:34.261Z,7.75
2018-11-02T00:05:34.268Z,7.75
2018-11-02T00:06:34.246Z,7.66
2018-11-02T00:07:34.259Z,7.78
2018-11-02T00:08:34.216Z,7.78
2018-11-02T00:09:34.204Z,7.74
2018-11-02T00:10:34.196Z,7.77
2018-11-02T00:11:34.188Z,7.72
2018-11-02T00:12:34.269Z,7.74
2018-11-02T00:13:34.171Z,7.63
2018-11-02T00:14:34.149Z,7.66
2018-11-02T00:15:34.137Z,7.63
2018-11-02T00:16:34.126Z,7.59
2018-11-02T00:17:34.158Z,7.47
2018-11-02T00:18:34.106Z,7.49
2018-11-02T00:19:34.092Z,7.50
2018-11-02T00:20:34.082Z,7.50
2018-11-02T00:21:34.072Z,7.41
2018-11-02T00:22:34.061Z,7.34
2018-11-02T00:23:34.088Z,7.42
2018-11-02T00:24:34.036Z,7.45
2018-11-02T00:25:34.030Z,7.34
2018-11-02T00:26:34.015Z,7.35
2018-11-02T00:27:34.003Z,7.40
2018-11-02T00:28:33.991Z,7.31
2018-11-02T00:29:34.001Z,7.29
2018-11-02T00:30:33.982Z,7.31
2018-11-02T00:31:33.959Z,7.34
2018-11-02T00:32:33.947Z,7.32
2018-11-02T00:33:33.939Z,7.32
2018-11-02T00:34:33.926Z,7.56
2018-11-02T00:35:33.953Z,7.58
2018-11-02T00:36:33.909Z,7.63
2018-11-02T00:37:33.891Z,7.59
2018-11-02T00:38:33.882Z,7.77
2018-11-02T00:39:33.870Z,7.81
2018-11-02T00:40:33.859Z,7.81
2018-11-02T00:41:33.859Z,7.87
2018-11-02T00:42:33.841Z,7.90
2018-11-02T00:43:33.824Z,7.99
2018-11-02T00:44:33.812Z,7.94
2018-11-02T00:45:33.803Z,8.00
2018-11-02T00:46:33.823Z,7.92
2018-11-02T00:47:33.782Z,7.94
2018-11-02T00:48:33.777Z,8.02
2018-11-02T00:49:33.758Z,7.93
2018-11-02T00:50:33.750Z,8.02
2018-11-02T00:51:33.736Z,8.08
2018-11-02T00:52:33.735Z,8.07
2018-11-02T00:53:33.712Z,7.97
2018-11-02T00:54:33.705Z,8.02
2018-11-02T00:55:33.689Z,8.02
2018-11-02T00:56:33.679Z,8.04
2018-11-02T00:57:33.681Z,8.00
2018-11-02T00:58:33.656Z,8.02
2018-11-02T00:59:33.644Z,8.04
2018-11-02T01:00:33.641Z,7.97
2018-11-02T01:01:33.625Z,8.04
2018-11-02T01:02:33.623Z,7.93
2018-11-02T01:03:33.600Z,7.89
2018-11-02T01:04:33.622Z,7.92
2018-11-02T01:05:33.576Z,7.92
2018-11-02T01:06:33.569Z,7.96
2018-11-02T01:07:33.558Z,7.97
2018-11-02T01:08:33.544Z,8.04
2018-11-02T01:09:33.532Z,8.12
2018-11-02T01:10:33.535Z,8.07
2018-11-02T01:11:33.511Z,8.20
2018-11-02T01:12:33.502Z,8.14
2018-11-02T01:13:33.494Z,8.21
2018-11-02T01:14:33.476Z,8.20
2018-11-02T01:15:33.486Z,8.28
2018-11-02T01:16:33.490Z,8.26
2018-11-02T01:17:33.444Z,8.29
2018-11-02T01:18:33.431Z,8.29
2018-11-02T01:19:33.426Z,8.29
2018-11-02T01:20:33.408Z,8.36
2018-11-02T01:21:33.411Z,8.35
2018-11-02T01:22:33.387Z,8.50
2018-11-02T01:23:33.375Z,8.50
2018-11-02T01:24:33.365Z,8.51
2018-11-02T01:25:33.356Z,8.54
2018-11-02T01:26:33.376Z,8.57
2018-11-02T01:27:33.331Z,8.53
2018-11-02T01:28:33.319Z,8.57
2018-11-02T01:29:33.309Z,8.57
2018-11-02T01:30:33.298Z,8.57
2018-11-02T01:31:33.315Z,8.57
2018-11-02T01:32:33.303Z,8.60
2018-11-02T01:33:33.263Z,8.53
2018-11-02T01:34:33.251Z,8.54
2018-11-02T01:35:33.240Z,8.51
2018-11-02T01:36:33.229Z,8.45
2018-11-02T01:37:33.223Z,8.50
2018-11-02T01:38:33.219Z,8.45
2018-11-02T01:39:33.197Z,8.39
2018-11-02T01:40:33.200Z,8.40
2018-11-02T01:41:33.171Z,8.36
2018-11-02T01:42:33.162Z,8.32
2018-11-02T01:43:33.167Z,8.39
2018-11-02T01:44:33.140Z,8.29
2018-11-02T01:45:33.129Z,8.33
2018-11-02T01:46:33.130Z,8.42
2018-11-02T01:47:33.105Z,8.44
2018-11-02T01:48:33.104Z,8.50
2018-11-02T01:49:33.099Z,8.50
2018-11-02T01:50:33.071Z,8.47
2018-11-02T01:51:33.063Z,8.40
2018-11-02T01:52:33.049Z,8.36
2018-11-02T01:53:33.038Z,8.40
2018-11-02T01:54:33.059Z,8.26
2018-11-02T01:55:33.021Z,8.26
2018-11-02T01:56:33.004Z,8.20
2018-11-02T01:57:32.993Z,8.30
2018-11-02T01:58:32.988Z,8.18
2018-11-02T01:59:32.971Z,8.21
2018-11-02T02:00:32.991Z,8.11
2018-11-02T02:01:32.952Z,8.10
2018-11-02T02:02:32.937Z,8.11
2018-11-02T02:03:32.924Z,8.04
2018-11-02T02:04:32.915Z,8.02
2018-11-02T02:05:32.903Z,7.94
2018-11-02T02:06:32.906Z,7.92
2018-11-02T02:07:32.885Z,7.97
2018-11-02T02:08:32.870Z,8.00
2018-11-02T02:09:32.858Z,7.96
2018-11-02T02:10:32.848Z,8.02
2018-11-02T02:11:32.855Z,7.90
2018-11-02T02:12:32.844Z,7.85
2018-11-02T02:13:32.818Z,7.84
2018-11-02T02:14:32.803Z,7.82
2018-11-02T02:15:32.792Z,7.81
2018-11-02T02:16:32.778Z,7.78
2018-11-02T02:17:32.772Z,7.82
2018-11-02T02:18:32.770Z,7.78
2018-11-02T02:19:32.751Z,7.75
2018-11-02T02:20:32.735Z,7.75
2018-11-02T02:21:32.723Z,7.84
2018-11-02T02:22:32.713Z,7.71
2018-11-02T02:23:32.714Z,7.78
2018-11-02T02:24:32.691Z,7.69
2018-11-02T02:25:32.686Z,7.71
2018-11-02T02:26:32.666Z,7.72
2018-11-02T02:27:32.657Z,7.75
2018-11-02T02:28:32.658Z,7.69
2018-11-02T02:29:32.633Z,7.63
2018-11-02T02:30:32.636Z,7.74
2018-11-02T02:31:32.621Z,7.66
2018-11-02T02:32:32.601Z,7.67
2018-11-02T02:33:32.619Z,7.66
2018-11-02T02:34:32.579Z,7.63
2018-11-02T02:35:32.567Z,7.63
2018-11-02T02:36:32.557Z,7.58
2018-11-02T02:37:32.546Z,7.59
2018-11-02T02:38:32.539Z,7.63
2018-11-02T02:39:32.553Z,7.69
2018-11-02T02:40:32.513Z,7.59
2018-11-02T02:41:32.499Z,7.67
2018-11-02T02:42:32.489Z,7.59
2018-11-02T02:43:32.490Z,7.67
2018-11-02T02:44:32.472Z,7.71
2018-11-02T02:45:32.468Z,7.78
2018-11-02T02:46:32.445Z,7.81
2018-11-02T02:47:32.435Z,7.78
2018-11-02T02:48:32.420Z,7.84
2018-11-02T02:49:32.421Z,7.82
2018-11-02T02:50:32.408Z,7.79
2018-11-02T02:51:32.402Z,7.84
2018-11-02T02:52:32.375Z,7.75
2018-11-02T02:53:32.365Z,7.74
2018-11-02T02:54:32.355Z,7.77
2018-11-02T02:55:32.341Z,7.79
2018-11-02T02:56:32.363Z,7.89
2018-11-02T02:57:32.320Z,7.79
2018-11-02T02:58:32.306Z,7.82
2018-11-02T02:59:32.295Z,7.84
2018-11-02T03:00:32.288Z,7.87
2018-11-02T03:01:32.286Z,7.96
2018-11-02T03:02:32.271Z,7.92
2018-11-02T03:03:32.267Z,7.89
2018-11-02T03:04:32.243Z,7.85
2018-11-02T03:05:32.231Z,7.87
2018-11-02T03:06:32.218Z,7.93
2018-11-02T03:07:32.208Z,7.78
2018-11-02T03:08:32.218Z,7.85
2018-11-02T03:09:32.198Z,7.92
2018-11-02T03:10:32.196Z,7.82
2018-11-02T03:11:32.167Z,7.81
2018-11-02T03:12:32.152Z,7.78
2018-11-02T03:13:32.175Z,7.75
2018-11-02T03:14:32.131Z,7.81
2018-11-02T03:15:32.116Z,7.81
2018-11-02T03:16:32.108Z,7.72
2018-11-02T03:17:32.094Z,7.66
2018-11-02T03:18:32.095Z,7.75
2018-11-02T03:19:32.107Z,7.77
2018-11-02T03:20:32.066Z,7.72
2018-11-02T03:21:32.048Z,7.72
2018-11-02T03:22:32.191Z,7.78
2018-11-02T03:23:32.027Z,7.90
2018-11-02T03:24:32.016Z,7.90
2018-11-02T03:25:32.017Z,7.94
2018-11-02T03:26:32.013Z,8.04
2018-11-02T03:27:31.983Z,8.04
2018-11-02T03:28:31.973Z,7.90
2018-11-02T03:29:31.961Z,7.96
2018-11-02T03:30:31.951Z,8.03
2018-11-02T03:31:31.938Z,8.07
2018-11-02T03:32:31.969Z,8.04
2018-11-02T03:33:31.916Z,8.20
2018-11-02T03:34:31.909Z,8.25
2018-11-02T03:35:31.892Z,8.22
2018-11-02T03:36:31.881Z,8.20
2018-11-02T03:37:31.871Z,8.12
2018-11-02T03:38:31.878Z,8.07
2018-11-02T03:39:31.846Z,8.12
2018-11-02T03:40:31.835Z,8.11
2018-11-02T03:41:31.823Z,8.04
2018-11-02T03:42:31.834Z,8.10
2018-11-02T03:43:31.803Z,8.04
2018-11-02T03:44:31.793Z,7.96
2018-11-02T03:45:31.788Z,7.94
2018-11-02T03:46:31.770Z,7.94
2018-11-02T03:47:31.757Z,8.08
2018-11-02T03:48:31.761Z,7.94
2018-11-02T03:49:31.737Z,8.07
2018-11-02T03:50:31.780Z,7.92
2018-11-02T03:51:31.720Z,7.92
2018-11-02T03:52:31.701Z,8.08
2018-11-02T03:53:31.702Z,8.04
2018-11-02T03:54:31.685Z,8.00
2018-11-02T03:55:31.670Z,8.07
2018-11-02T03:56:31.661Z,8.07
2018-11-02T03:57:31.651Z,8.08
2018-11-02T03:58:31.666Z,8.12
2018-11-02T03:59:31.622Z,8.20
2018-11-02T04:00:31.612Z,8.29
2018-11-02T04:01:31.601Z,8.28
2018-11-02T04:02:31.590Z,8.37
2018-11-02T04:03:31.582Z,8.29
2018-11-02T04:04:31.598Z,8.29
2018-11-02T04:05:31.556Z,8.39
2018-11-02T04:06:31.543Z,8.50
2018-11-02T04:07:31.562Z,8.48
2018-11-02T04:08:31.526Z,8.54
2018-11-02T04:09:31.534Z,8.51
2018-11-02T04:10:31.512Z,8.54
2018-11-02T04:11:31.489Z,8.62
2018-11-02T04:12:31.478Z,8.60
2018-11-02T04:13:31.466Z,8.69
2018-11-02T04:14:31.455Z,8.68
2018-11-02T04:15:31.482Z,8.83
2018-11-02T04:16:31.435Z,8.75
2018-11-02T04:17:31.423Z,8.83
2018-11-02T04:18:31.412Z,8.88
2018-11-02T04:19:31.398Z,8.93
2018-11-02T04:20:31.389Z,8.99
2018-11-02T04:21:31.421Z,8.96
2018-11-02T04:22:31.366Z,8.93
2018-11-02T04:23:31.353Z,8.93
2018-11-02T04:24:31.344Z,8.93
2018-11-02T04:25:31.333Z,8.91
2018-11-02T04:26:31.319Z,8.90
2018-11-02T04:27:31.347Z,8.88
2018-11-02T04:28:31.318Z,8.71
2018-11-02T04:29:31.288Z,8.75
2018-11-02T04:30:31.273Z,8.73
2018-11-02T04:31:31.267Z,8.78
2018-11-02T04:32:31.251Z,8.73
2018-11-02T04:33:31.264Z,8.76
2018-11-02T04:34:31.231Z,8.86
2018-11-02T04:35:31.219Z,8.78
2018-11-02T04:36:31.208Z,8.75
2018-11-02T04:37:31.195Z,8.81
2018-11-02T04:38:31.216Z,8.75
2018-11-02T04:39:31.174Z,8.69
2018-11-02T04:40:31.164Z,8.76
2018-11-02T04:41:31.150Z,8.72
2018-11-02T04:42:31.140Z,8.69
2018-11-02T04:43:31.129Z,8.66
2018-11-02T04:44:31.147Z,8.68
2018-11-02T04:45:31.111Z,8.72
2018-11-02T04:46:31.100Z,8.75
2018-11-02T04:47:31.083Z,8.66
2018-11-02T04:48:31.072Z,8.55
2018-11-02T04:49:31.061Z,8.60
2018-11-02T04:50:31.082Z,8.58
2018-11-02T04:51:31.047Z,8.58
2018-11-02T04:52:31.031Z,8.63
2018-11-02T04:53:31.017Z,8.60
2018-11-02T04:54:31.005Z,8.51
2018-11-02T04:55:30.993Z,8.57
2018-11-02T04:56:31.015Z,8.50
2018-11-02T04:57:30.980Z,8.47
2018-11-02T04:58:30.961Z,8.40
2018-11-02T04:59:30.954Z,8.37
2018-11-02T05:00:30.937Z,8.29
2018-11-02T05:01:30.926Z,8.26
2018-11-02T05:02:30.946Z,8.22
2018-11-02T05:03:30.911Z,8.29
2018-11-02T05:04:30.911Z,8.25
2018-11-02T05:05:30.880Z,8.20
2018-11-02T05:06:30.870Z,8.15
2018-11-02T05:07:30.858Z,8.12
2018-11-02T05:08:30.877Z,8.14
2018-11-02T05:09:30.848Z,8.21
2018-11-02T05:10:30.824Z,8.21
2018-11-02T05:11:30.979Z,8.18
2018-11-02T05:12:30.802Z,8.17
2018-11-02T05:13:30.791Z,8.22
2018-11-02T05:14:30.792Z,8.14
2018-11-02T05:15:30.814Z,8.20
2018-11-02T05:16:30.758Z,8.25
2018-11-02T05:17:30.746Z,8.26
2018-11-02T05:18:30.775Z,8.25
2018-11-02T05:19:30.738Z,8.33
2018-11-02T05:20:30.712Z,8.30
2018-11-02T05:21:30.849Z,8.29
2018-11-02T05:22:30.690Z,8.15
2018-11-02T05:23:30.678Z,8.25
2018-11-02T05:24:30.699Z,8.32
2018-11-02T05:25:30.656Z,8.25
2018-11-02T05:26:30.646Z,8.29
2018-11-02T05:27:30.640Z,8.26
2018-11-02T05:28:30.622Z,8.29
2018-11-02T05:29:30.611Z,8.40
2018-11-02T05:30:30.614Z,8.35
2018-11-02T05:31:30.602Z,8.37
2018-11-02T05:32:30.579Z,8.32
2018-11-02T05:33:30.574Z,8.44
2018-11-02T05:34:30.555Z,8.50
2018-11-02T05:35:30.544Z,8.51
2018-11-02T05:36:30.543Z,8.58
2018-11-02T05:37:30.523Z,8.58
2018-11-02T05:38:30.533Z,8.55
2018-11-02T05:39:30.657Z,8.65
2018-11-02T05:40:30.488Z,8.65
2018-11-02T05:41:30.490Z,8.68
2018-11-02T05:42:30.467Z,8.62
2018-11-02T05:43:30.456Z,8.75
2018-11-02T05:44:30.444Z,8.79
2018-11-02T05:45:30.441Z,8.78
2018-11-02T05:46:30.454Z,8.86
2018-11-02T05:47:30.590Z,8.86
2018-11-02T05:48:30.401Z,8.81
2018-11-02T05:49:30.388Z,8.86
2018-11-02T05:50:30.376Z,8.94
2018-11-02T05:51:30.372Z,8.90
2018-11-02T05:52:30.393Z,8.97
2018-11-02T05:53:30.342Z,8.97
2018-11-02T05:54:30.330Z,9.02
2018-11-02T05:55:30.319Z,9.05
2018-11-02T05:56:30.307Z,9.04
2018-11-02T05:57:30.303Z,9.12
2018-11-02T05:58:30.324Z,9.10
2018-11-02T05:59:30.279Z,9.06
2018-11-02T06:00:30.267Z,9.06
2018-11-02T06:01:30.270Z,9.06
2018-11-02T06:02:30.240Z,9.09
2018-11-02T06:03:30.229Z,9.09
2018-11-02T06:04:30.236Z,9.04
2018-11-02T06:05:30.213Z,9.05
2018-11-02T06:06:30.195Z,9.02
2018-11-02T06:07:30.185Z,9.06
2018-11-02T06:08:30.206Z,9.13
2018-11-02T06:09:30.163Z,9.02
2018-11-02T06:10:30.156Z,9.15
2018-11-02T06:11:30.137Z,9.15
2018-11-02T06:12:30.125Z,9.12
2018-11-02T06:13:30.159Z,9.16
2018-11-02T06:14:30.136Z,9.20
2018-11-02T06:15:30.093Z,9.20
2018-11-02T06:16:30.094Z,9.18
2018-11-02T06:17:30.069Z,9.24
2018-11-02T06:18:30.061Z,9.21
2018-11-02T06:19:30.049Z,9.18
2018-11-02T06:20:30.053Z,9.21
2018-11-02T06:21:30.070Z,9.28
2018-11-02T06:22:30.022Z,9.28
2018-11-02T06:23:30.003Z,9.24
2018-11-02T06:24:29.992Z,9.28
2018-11-02T06:25:29.981Z,9.31
2018-11-02T06:26:29.971Z,9.25
2018-11-02T06:27:29.991Z,9.27
2018-11-02T06:28:29.950Z,9.28
2018-11-02T06:29:29.935Z,9.28
2018-11-02T06:30:30.035Z,9.39
2018-11-02T06:31:29.916Z,9.34
2018-11-02T06:32:29.952Z,9.38
2018-11-02T06:33:29.939Z,9.35
2018-11-02T06:34:29.881Z,9.40
2018-11-02T06:35:29.869Z,9.40
2018-11-02T06:36:29.858Z,9.45
2018-11-02T06:37:29.845Z,9.48
2018-11-02T06:38:29.850Z,9.50
2018-11-02T06:39:29.855Z,9.50
2018-11-02T06:40:29.823Z,9.43
2018-11-02T06:41:29.802Z,9.50
2018-11-02T06:42:29.788Z,9.48
2018-11-02T06:43:29.778Z,9.52
2018-11-02T06:44:29.766Z,9.48
2018-11-02T06:45:29.793Z,9.45
2018-11-02T06:46:29.750Z,9.43
2018-11-02T06:47:29.732Z,9.35
2018-11-02T06:48:29.723Z,9.39
2018-11-02T06:49:29.723Z,9.32
2018-11-02T06:50:29.697Z,9.23
2018-11-02T06:51:29.702Z,9.20
2018-11-02T06:52:29.699Z,9.25
2018-11-02T06:53:29.677Z,9.21
2018-11-02T06:54:29.652Z,9.02
2018-11-02T06:55:29.667Z,9.09
2018-11-02T06:56:29.661Z,9.06
2018-11-02T06:57:29.620Z,9.05
2018-11-02T06:58:29.616Z,9.06
2018-11-02T06:59:29.918Z,9.12
2018-11-02T07:00:29.723Z,9.06
2018-11-02T07:01:29.574Z,9.06
2018-11-02T07:02:29.594Z,9.05
2018-11-02T07:03:29.554Z,9.02
2018-11-02T07:04:29.544Z,8.96
2018-11-02T07:05:29.528Z,8.91
2018-11-02T07:06:29.518Z,8.93
2018-11-02T07:07:29.712Z,8.86
2018-11-02T07:08:29.571Z,8.73
2018-11-02T07:09:29.483Z,8.90
2018-11-02T07:10:29.480Z,8.76
2018-11-02T07:11:29.476Z,8.76
2018-11-02T07:12:29.462Z,8.81
2018-11-02T07:13:29.438Z,8.86
2018-11-02T07:14:29.427Z,8.83
2018-11-02T07:15:29.414Z,8.86
2018-11-02T07:16:29.438Z,8.88
2018-11-02T07:17:29.398Z,8.87
2018-11-02T07:18:29.383Z,8.86
2018-11-02T07:19:29.373Z,8.93
2018-11-02T07:20:29.363Z,8.90
2018-11-02T07:21:29.348Z,8.91
2018-11-02T07:22:29.348Z,8.97
2018-11-02T07:23:29.332Z,8.93
2018-11-02T07:24:29.315Z,8.94
2018-11-02T07:25:29.303Z,9.01
2018-11-02T07:26:29.292Z,9.10
2018-11-02T07:27:29.293Z,9.06
2018-11-02T07:28:29.271Z,9.04
2018-11-02T07:29:29.256Z,9.16
2018-11-02T07:30:29.247Z,9.20
2018-11-02T07:31:29.236Z,9.27
2018-11-02T07:32:29.235Z,9.25
2018-11-02T07:33:29.215Z,9.31
2018-11-02T07:34:29.393Z,9.39
2018-11-02T07:35:29.194Z,9.39
2018-11-02T07:36:29.185Z,9.49
2018-11-02T07:37:29.167Z,9.49
2018-11-02T07:38:29.156Z,9.53
2018-11-02T07:39:29.144Z,9.57
2018-11-02T07:40:29.146Z,9.66
2018-11-02T07:41:29.140Z,9.64
2018-11-02T07:42:29.116Z,9.67
2018-11-02T07:43:29.105Z,9.66
2018-11-02T07:44:29.101Z,9.61
2018-11-02T07:45:29.079Z,9.71
2018-11-02T07:46:29.078Z,9.71
2018-11-02T07:47:29.081Z,9.70
2018-11-02T07:48:29.045Z,9.70
2018-11-02T07:49:29.101Z,9.68
2018-11-02T07:50:29.055Z,9.71
2018-11-02T07:51:29.032Z,9.75
2018-11-02T07:52:29.001Z,9.82
2018-11-02T07:53:28.987Z,9.81
2018-11-02T07:54:28.977Z,9.81
2018-11-02T07:55:28.974Z,9.94
2018-11-02T07:56:28.971Z,9.88
2018-11-02T07:57:28.944Z,9.91
2018-11-02T07:58:28.934Z,9.94
2018-11-02T07:59:28.924Z,9.97
2018-11-02T08:00:28.910Z,9.94
2018-11-02T08:01:28.938Z,9.99
2018-11-02T08:02:28.888Z,10.07
2018-11-02T08:03:28.877Z,10.04
2018-11-02T08:04:28.866Z,10.06
2018-11-02T08:05:28.855Z,10.09
2018-11-02T08:06:28.843Z,10.09
2018-11-02T08:07:28.873Z,10.04
2018-11-02T08:08:28.819Z,10.18
2018-11-02T08:09:28.810Z,10.18
2018-11-02T08:10:28.799Z,10.10
2018-11-02T08:11:28.954Z,10.26
2018-11-02T08:12:28.776Z,10.28
2018-11-02T08:13:28.791Z,10.26
2018-11-02T08:14:28.752Z,10.30
2018-11-02T08:15:28.742Z,10.34
2018-11-02T08:16:28.731Z,10.40
2018-11-02T08:17:28.791Z,10.26
2018-11-02T08:18:28.721Z,10.39
2018-11-02T08:19:28.701Z,10.36
2018-11-02T08:20:28.696Z,10.43
2018-11-02T08:21:28.673Z,10.44
2018-11-02T08:22:28.662Z,10.47
2018-11-02T08:23:28.683Z,10.47
2018-11-02T08:24:28.667Z,10.58
2018-11-02T08:25:28.632Z,10.63
2018-11-02T08:26:28.622Z,10.70
2018-11-02T08:27:28.607Z,10.92
2018-11-02T08:28:28.595Z,11.01
2018-11-02T08:29:28.595Z,11.02
2018-11-02T08:30:28.571Z,11.20
2018-11-02T08:31:28.568Z,11.27
2018-11-02T08:32:28.550Z,11.31
2018-11-02T08:33:28.537Z,11.35
2018-11-02T08:34:28.538Z,11.29
2018-11-02T08:35:28.514Z,11.32
2018-11-02T08:36:28.506Z,11.39
2018-11-02T08:37:28.497Z,11.44
2018-11-02T08:38:28.495Z,11.43
2018-11-02T08:39:28.471Z,11.47
2018-11-02T08:40:28.459Z,11.49
2018-11-02T08:41:28.461Z,11.41
2018-11-02T08:42:28.439Z,11.41
2018-11-02T08:43:28.430Z,11.41
2018-11-02T08:44:28.415Z,11.43
2018-11-02T08:45:28.404Z,11.36
2018-11-02T08:46:28.472Z,11.29
2018-11-02T08:47:28.389Z,11.38
2018-11-02T08:48:28.368Z,11.38
2018-11-02T08:49:28.361Z,11.29
2018-11-02T08:50:28.376Z,11.24
2018-11-02T08:51:28.335Z,11.27
2018-11-02T08:52:28.449Z,11.25
2018-11-02T08:53:28.314Z,11.36
2018-11-02T08:54:28.302Z,11.29
2018-11-02T08:55:28.300Z,11.31
2018-11-02T08:56:28.322Z,11.31
2018-11-02T08:57:28.269Z,11.25
2018-11-02T08:58:28.380Z,11.32
2018-11-02T08:59:28.469Z,11.29
2018-11-02T09:00:28.234Z,11.36
2018-11-02T09:01:28.229Z,11.46
2018-11-02T09:02:28.260Z,11.38
2018-11-02T09:03:28.202Z,11.53
2018-11-02T09:04:28.188Z,11.57
2018-11-02T09:05:28.176Z,11.74
2018-11-02T09:06:28.165Z,11.72
2018-11-02T09:07:28.159Z,11.80
2018-11-02T09:08:28.174Z,11.72
2018-11-02T09:09:28.132Z,11.82
2018-11-02T09:10:28.122Z,11.72
2018-11-02T09:11:28.109Z,11.67
2018-11-02T09:12:28.098Z,11.71
2018-11-02T09:13:28.091Z,11.62
2018-11-02T09:14:28.090Z,11.67
2018-11-02T09:15:28.078Z,11.46
2018-11-02T09:16:28.053Z,11.59
2018-11-02T09:17:28.045Z,11.53
2018-11-02T09:18:28.206Z,11.43
2018-11-02T09:19:28.129Z,11.39
2018-11-02T09:20:28.021Z,11.43
2018-11-02T09:21:28.206Z,11.32
2018-11-02T09:22:27.986Z,11.29
2018-11-02T09:23:27.980Z,11.32
2018-11-02T09:24:27.962Z,11.32
2018-11-02T09:25:27.965Z,11.28
2018-11-02T09:26:27.945Z,11.25
2018-11-02T09:27:27.980Z,11.24
2018-11-02T09:28:27.916Z,11.17
2018-11-02T09:29:27.911Z,11.25
2018-11-02T09:30:27.896Z,11.21
2018-11-02T09:31:27.883Z,11.16
2018-11-02T09:32:27.908Z,11.19
2018-11-02T09:33:27.861Z,11.11
2018-11-02T09:34:27.850Z,11.16
2018-11-02T09:35:27.840Z,10.99
2018-11-02T09:36:27.826Z,11.07
2018-11-02T09:37:27.815Z,11.03
2018-11-02T09:38:27.841Z,11.02
2018-11-02T09:39:27.794Z,10.98
2018-11-02T09:40:27.818Z,10.95
2018-11-02T09:41:27.771Z,10.94
2018-11-02T09:42:27.798Z,10.88
2018-11-02T09:43:27.751Z,10.89
2018-11-02T09:44:27.763Z,10.81
2018-11-02T09:45:27.731Z,10.77
2018-11-02T09:46:27.717Z,10.80
2018-11-02T09:47:27.704Z,10.80
2018-11-02T09:48:27.693Z,10.86
2018-11-02T09:49:27.681Z,10.78
2018-11-02T09:50:27.722Z,10.83
2018-11-02T09:51:27.739Z,10.83
2018-11-02T09:52:27.645Z,10.68
2018-11-02T09:53:27.635Z,10.74
2018-11-02T09:54:27.624Z,10.66
2018-11-02T09:55:27.610Z,10.70
2018-11-02T09:56:27.618Z,10.73
2018-11-02T09:57:27.643Z,10.70
2018-11-02T09:58:27.577Z,10.66
2018-11-02T09:59:27.565Z,10.68
2018-11-02T10:00:27.554Z,10.63
2018-11-02T10:01:27.577Z,10.63
2018-11-02T10:02:27.536Z,10.66
2018-11-02T10:03:27.518Z,10.70
2018-11-02T10:04:27.510Z,10.68
2018-11-02T10:05:27.498Z,10.71
2018-11-02T10:06:27.487Z,10.71
2018-11-02T10:07:27.486Z,10.62
2018-11-02T10:08:27.535Z,10.62
2018-11-02T10:09:27.451Z,10.58
2018-11-02T10:10:27.487Z,10.58
2018-11-02T10:11:27.429Z,10.59
2018-11-02T10:12:27.437Z,10.60
2018-11-02T10:13:27.406Z,10.59
2018-11-02T10:14:27.432Z,10.62
2018-11-02T10:15:27.382Z,10.63
2018-11-02T10:16:27.373Z,10.62
2018-11-02T10:17:27.360Z,10.60
2018-11-02T10:18:27.348Z,10.60
2018-11-02T10:19:27.337Z,10.53
2018-11-02T10:20:27.377Z,10.59
2018-11-02T10:21:27.319Z,10.60
2018-11-02T10:22:27.304Z,10.58
2018-11-02T10:23:27.291Z,10.62
2018-11-02T10:24:27.281Z,10.62
2018-11-02T10:25:27.269Z,10.62
2018-11-02T10:26:27.278Z,10.60
2018-11-02T10:27:27.247Z,10.59
2018-11-02T10:28:27.237Z,10.60
2018-11-02T10:29:27.242Z,10.55
2018-11-02T10:30:27.213Z,10.55
2018-11-02T10:31:27.202Z,10.47
2018-11-02T10:32:27.193Z,10.55
2018-11-02T10:33:27.179Z,10.43
2018-11-02T10:34:27.166Z,10.46
2018-11-02T10:35:27.286Z,10.44
2018-11-02T10:36:27.143Z,10.46
2018-11-02T10:37:27.133Z,10.53
2018-11-02T10:38:27.129Z,10.47
2018-11-02T10:39:27.167Z,10.43
2018-11-02T10:40:27.097Z,10.53
2018-11-02T10:41:27.098Z,10.47
2018-11-02T10:42:27.075Z,10.46
2018-11-02T10:43:27.065Z,10.58
2018-11-02T10:44:27.137Z,10.46
2018-11-02T10:45:27.178Z,10.56
2018-11-02T10:46:27.029Z,10.58
2018-11-02T10:47:27.018Z,10.43
2018-11-02T10:48:27.006Z,10.56
2018-11-02T10:49:27.073Z,10.56
2018-11-02T10:50:26.993Z,10.58
2018-11-02T10:51:26.985Z,10.60
2018-11-02T10:52:26.961Z,10.60
2018-11-02T10:53:26.950Z,10.68
2018-11-02T10:54:26.964Z,10.60
2018-11-02T10:55:26.924Z,10.58
2018-11-02T10:56:26.961Z,10.59
2018-11-02T10:57:26.902Z,10.60
2018-11-02T10:58:26.890Z,10.62
2018-11-02T10:59:26.880Z,10.68
2018-11-02T11:00:26.900Z,10.68
2018-11-02T11:01:26.981Z,10.74
2018-11-02T11:02:26.848Z,10.65
2018-11-02T11:03:26.860Z,10.73
2018-11-02T11:04:26.821Z,10.74
2018-11-02T11:05:26.911Z,10.80
2018-11-02T11:06:26.801Z,10.83
2018-11-02T11:07:26.790Z,10.86
2018-11-02T11:08:26.777Z,10.83
2018-11-02T11:09:26.786Z,10.86
2018-11-02T11:10:26.756Z,10.99
2018-11-02T11:11:26.785Z,10.92
2018-11-02T11:12:26.867Z,10.83
2018-11-02T11:13:27.196Z,11.02
2018-11-02T11:14:26.710Z,10.96
2018-11-02T11:15:26.705Z,10.98
2018-11-02T11:16:26.687Z,11.01
2018-11-02T11:17:26.676Z,11.01
2018-11-02T11:18:26.698Z,11.03
2018-11-02T11:19:26.654Z,11.06
2018-11-02T11:20:26.641Z,11.03
2018-11-02T11:21:26.658Z,11.13
2018-11-02T11:22:26.618Z,11.21
2018-11-02T11:23:26.608Z,11.25
2018-11-02T11:24:26.632Z,11.16
2018-11-02T11:25:26.588Z,11.24
2018-11-02T11:26:26.579Z,11.38
2018-11-02T11:27:26.570Z,11.35
2018-11-02T11:28:26.551Z,11.35
2018-11-02T11:29:26.600Z,11.46
2018-11-02T11:30:26.540Z,11.46
2018-11-02T11:31:26.518Z,11.43
2018-11-02T11:32:26.508Z,11.46
2018-11-02T11:33:26.504Z,11.65
2018-11-02T11:34:26.488Z,11.70
2018-11-02T11:35:26.484Z,11.71
2018-11-02T11:36:26.461Z,11.71
2018-11-02T11:37:26.453Z,11.78
2018-11-02T11:38:26.454Z,11.82
2018-11-02T11:39:26.486Z,11.96
2018-11-02T11:40:26.415Z,11.97
2018-11-02T11:41:26.406Z,12.06
2018-11-02T11:42:26.395Z,12.11
2018-11-02T11:43:26.416Z,12.16
2018-11-02T11:44:26.371Z,12.21
2018-11-02T11:45:26.370Z,12.16
2018-11-02T11:46:26.348Z,12.23
2018-11-02T11:47:26.338Z,12.19
2018-11-02T11:48:26.369Z,12.12
2018-11-02T11:49:26.327Z,12.20
2018-11-02T11:50:26.316Z,12.13
2018-11-02T11:51:26.297Z,12.19
2018-11-02T11:52:26.281Z,12.12
2018-11-02T11:53:26.271Z,11.99
2018-11-02T11:54:26.284Z,11.89
2018-11-02T11:55:26.280Z,11.80
2018-11-02T11:56:26.236Z,11.80
2018-11-02T11:57:26.229Z,11.72
2018-11-02T11:58:26.213Z,11.68
2018-11-02T11:59:26.200Z,11.62
2018-11-02T12:00:26.189Z,11.56
2018-11-02T12:01:26.190Z,11.61
2018-11-02T12:02:26.255Z,11.64
2018-11-02T12:03:26.166Z,11.61
2018-11-02T12:04:26.223Z,11.72
2018-11-02T12:05:26.168Z,11.78
2018-11-02T12:06:26.122Z,11.89
2018-11-02T12:07:26.120Z,11.90
2018-11-02T12:08:26.099Z,11.96
2018-11-02T12:09:26.094Z,12.08
2018-11-02T12:10:26.154Z,12.15
2018-11-02T12:11:26.085Z,12.16
2018-11-02T12:12:26.055Z,12.30
2018-11-02T12:13:26.043Z,12.42
2018-11-02T12:14:26.052Z,12.42
2018-11-02T12:15:26.059Z,12.46
2018-11-02T12:16:26.013Z,12.48
2018-11-02T12:17:25.998Z,12.54
2018-11-02T12:18:25.998Z,12.59
2018-11-02T12:19:25.975Z,12.52
2018-11-02T12:20:25.965Z,12.48
2018-11-02T12:21:25.972Z,12.39
2018-11-02T12:22:25.956Z,12.33
2018-11-02T12:23:25.988Z,12.31
2018-11-02T12:24:25.921Z,12.12
2018-11-02T12:25:25.906Z,12.15
2018-11-02T12:26:25.896Z,12.16
2018-11-02T12:27:25.891Z,12.06
2018-11-02T12:28:25.938Z,12.04
2018-11-02T12:29:25.884Z,12.01
2018-11-02T12:30:25.852Z,12.01
2018-11-02T12:31:25.838Z,11.90
2018-11-02T12:32:25.828Z,11.90
2018-11-02T12:33:25.862Z,11.85
2018-11-02T12:34:25.806Z,11.77
2018-11-02T12:35:25.796Z,11.72
2018-11-02T12:36:25.785Z,11.77
2018-11-02T12:37:25.770Z,11.70
2018-11-02T12:38:25.760Z,11.83
2018-11-02T12:39:25.766Z,11.82
2018-11-02T12:40:25.800Z,11.87
2018-11-02T12:41:25.727Z,11.87
2018-11-02T12:42:25.715Z,11.94
2018-11-02T12:43:25.812Z,11.93
2018-11-02T12:44:25.694Z,11.93
2018-11-02T12:45:25.722Z,11.78
2018-11-02T12:46:25.671Z,11.77
2018-11-02T12:47:25.659Z,11.72
2018-11-02T12:48:25.767Z,11.65
2018-11-02T12:49:25.994Z,11.53
2018-11-02T12:50:25.772Z,11.49
2018-11-02T12:51:25.631Z,11.41
2018-11-02T12:52:25.641Z,11.46
2018-11-02T12:53:25.591Z,11.41
2018-11-02T12:54:25.581Z,11.31
2018-11-02T12:55:25.571Z,11.27
2018-11-02T12:56:25.557Z,11.29
2018-11-02T12:57:25.597Z,11.25
2018-11-02T12:58:25.554Z,11.25
2018-11-02T12:59:25.524Z,11.25
2018-11-02T13:00:25.514Z,11.21
2018-11-02T13:01:25.502Z,11.27
2018-11-02T13:02:25.490Z,11.19
2018-11-02T13:03:25.496Z,11.27
2018-11-02T13:04:25.476Z,11.25
2018-11-02T13:05:25.467Z,11.16
2018-11-02T13:06:25.447Z,11.27
2018-11-02T13:07:25.434Z,11.24
2018-11-02T13:08:25.455Z,11.10